sensor_id;sensor_type;location;lat;lon;timestamp;temperature;humidity
21487;DHT22;10905;50.822;4.336;2023-01-19T00:01:25;2.80;99.90
21487;DHT22;10905;50.822;4.336;2023-01-19T00:03:51;2.80;99.90
21487;DHT22;10905;50.822;4.336;2023-01-19T00:06:16;2.80;99.90
21487;DHT22;10905;50.822;4.336;2023-01-19T00:08:43;2.80;99.90
21487;DHT22;10905;50.822;4.336;2023-01-19T00:11:13;2.70;99.90
21487;DHT22;10905;50.822;4.336;2023-01-19T00:13:39;2.70;99.90
21487;DHT22;10905;50.822;4.336;2023-01-19T00:16:06;2.80;99.90
21487;DHT22;10905;50.822;4.336;2023-01-19T00:18:32;2.70;99.90
21487;DHT22;10905;50.822;4.336;2023-01-19T00:20:57;2.60;99.90
21487;DHT22;10905;50.822;4.336;2023-01-19T00:23:23;2.60;99.90
21487;DHT22;10905;50.822;4.336;2023-01-19T00:25:49;2.60;99.90
21487;DHT22;10905;50.822;4.336;2023-01-19T00:28:16;2.70;99.90
21487;DHT22;10905;50.822;4.336;2023-01-19T00:30:42;2.80;99.90
21487;DHT22;10905;50.822;4.336;2023-01-19T00:33:09;2.90;99.90
21487;DHT22;10905;50.822;4.336;2023-01-19T00:35:35;2.90;99.90
21487;DHT22;10905;50.822;4.336;2023-01-19T00:38:01;2.90;99.90
21487;DHT22;10905;50.822;4.336;2023-01-19T00:40:27;3.00;99.90
21487;DHT22;10905;50.822;4.336;2023-01-19T00:42:56;2.90;99.90
21487;DHT22;10905;50.822;4.336;2023-01-19T00:45:23;2.90;99.90
21487;DHT22;10905;50.822;4.336;2023-01-19T00:47:49;2.90;99.90
21487;DHT22;10905;50.822;4.336;2023-01-19T00:50:21;2.90;99.90
21487;DHT22;10905;50.822;4.336;2023-01-19T00:52:47;2.80;99.90
21487;DHT22;10905;50.822;4.336;2023-01-19T00:55:14;2.80;99.90
21487;DHT22;10905;50.822;4.336;2023-01-19T00:57:40;2.70;99.90
21487;DHT22;10905;50.822;4.336;2023-01-19T01:00:13;2.70;99.90
21487;DHT22;10905;50.822;4.336;2023-01-19T01:02:40;2.70;99.90
21487;DHT22;10905;50.822;4.336;2023-01-19T01:05:06;2.70;99.90
21487;DHT22;10905;50.822;4.336;2023-01-19T01:07:33;2.70;99.90
21487;DHT22;10905;50.822;4.336;2023-01-19T01:10:11;2.60;99.90
21487;DHT22;10905;50.822;4.336;2023-01-19T01:12:39;2.60;99.90
21487;DHT22;10905;50.822;4.336;2023-01-19T01:15:06;2.50;99.90
21487;DHT22;10905;50.822;4.336;2023-01-19T01:17:32;2.50;99.90
21487;DHT22;10905;50.822;4.336;2023-01-19T01:19:58;2.50;99.90
21487;DHT22;10905;50.822;4.336;2023-01-19T01:22:23;2.50;99.90
21487;DHT22;10905;50.822;4.336;2023-01-19T01:24:49;2.50;99.90
21487;DHT22;10905;50.822;4.336;2023-01-19T01:27:15;2.50;99.90
21487;DHT22;10905;50.822;4.336;2023-01-19T01:29:40;2.60;99.90
21487;DHT22;10905;50.822;4.336;2023-01-19T01:32:15;2.60;99.90
21487;DHT22;10905;50.822;4.336;2023-01-19T01:34:41;2.50;99.90
21487;DHT22;10905;50.822;4.336;2023-01-19T01:37:07;2.50;99.90
21487;DHT22;10905;50.822;4.336;2023-01-19T01:39:34;2.50;99.90
21487;DHT22;10905;50.822;4.336;2023-01-19T01:41:59;2.40;99.90
21487;DHT22;10905;50.822;4.336;2023-01-19T01:44:51;2.40;99.90
21487;DHT22;10905;50.822;4.336;2023-01-19T01:50:00;2.50;99.90
21487;DHT22;10905;50.822;4.336;2023-01-19T01:52:28;2.50;99.90
21487;DHT22;10905;50.822;4.336;2023-01-19T01:54:56;2.40;99.90
21487;DHT22;10905;50.822;4.336;2023-01-19T01:57:23;2.30;99.90
21487;DHT22;10905;50.822;4.336;2023-01-19T01:59:53;2.40;99.90
21487;DHT22;10905;50.822;4.336;2023-01-19T02:02:25;2.30;99.90
21487;DHT22;10905;50.822;4.336;2023-01-19T02:05:22;2.30;99.90
21487;DHT22;10905;50.822;4.336;2023-01-19T02:10:42;2.30;99.90
21487;DHT22;10905;50.822;4.336;2023-01-19T02:13:29;2.30;99.90
21487;DHT22;10905;50.822;4.336;2023-01-19T02:16:00;2.30;99.90
21487;DHT22;10905;50.822;4.336;2023-01-19T02:18:29;2.30;99.90
21487;DHT22;10905;50.822;4.336;2023-01-19T02:23:48;2.20;99.90
21487;DHT22;10905;50.822;4.336;2023-01-19T02:26:25;2.20;99.90
21487;DHT22;10905;50.822;4.336;2023-01-19T02:28:58;2.20;99.90
21487;DHT22;10905;50.822;4.336;2023-01-19T02:31:25;2.20;99.90
21487;DHT22;10905;50.822;4.336;2023-01-19T02:33:51;2.20;99.90
21487;DHT22;10905;50.822;4.336;2023-01-19T02:36:23;2.30;99.90
21487;DHT22;10905;50.822;4.336;2023-01-19T02:38:52;2.30;99.90
21487;DHT22;10905;50.822;4.336;2023-01-19T02:41:21;2.30;99.90
21487;DHT22;10905;50.822;4.336;2023-01-19T02:43:50;2.30;99.90
21487;DHT22;10905;50.822;4.336;2023-01-19T02:46:16;2.40;99.90
21487;DHT22;10905;50.822;4.336;2023-01-19T02:48:42;2.40;99.90
21487;DHT22;10905;50.822;4.336;2023-01-19T02:51:15;2.30;99.90
21487;DHT22;10905;50.822;4.336;2023-01-19T03:10:56;2.20;99.90
21487;DHT22;10905;50.822;4.336;2023-01-19T03:18:34;2.20;99.90
21487;DHT22;10905;50.822;4.336;2023-01-19T03:21:04;2.30;99.90
21487;DHT22;10905;50.822;4.336;2023-01-19T03:23:33;2.30;99.90
21487;DHT22;10905;50.822;4.336;2023-01-19T03:26:02;2.30;99.90
21487;DHT22;10905;50.822;4.336;2023-01-19T03:28:29;2.40;99.90
21487;DHT22;10905;50.822;4.336;2023-01-19T03:31:16;2.40;99.90
21487;DHT22;10905;50.822;4.336;2023-01-19T03:33:48;2.60;99.90
21487;DHT22;10905;50.822;4.336;2023-01-19T03:36:26;2.60;99.90
21487;DHT22;10905;50.822;4.336;2023-01-19T03:38:56;2.60;99.90
21487;DHT22;10905;50.822;4.336;2023-01-19T03:41:23;2.60;99.90
21487;DHT22;10905;50.822;4.336;2023-01-19T03:43:51;2.70;99.90
21487;DHT22;10905;50.822;4.336;2023-01-19T03:46:18;2.80;99.90
21487;DHT22;10905;50.822;4.336;2023-01-19T03:48:45;2.80;99.90
21487;DHT22;10905;50.822;4.336;2023-01-19T03:51:12;2.80;99.90
21487;DHT22;10905;50.822;4.336;2023-01-19T03:53:39;2.80;99.90
21487;DHT22;10905;50.822;4.336;2023-01-19T03:56:05;2.90;99.90
21487;DHT22;10905;50.822;4.336;2023-01-19T03:58:31;2.90;99.90
21487;DHT22;10905;50.822;4.336;2023-01-19T04:00:57;2.80;99.90
21487;DHT22;10905;50.822;4.336;2023-01-19T04:03:23;2.90;99.90
21487;DHT22;10905;50.822;4.336;2023-01-19T04:05:48;2.80;99.90
21487;DHT22;10905;50.822;4.336;2023-01-19T04:08:14;2.80;99.90
21487;DHT22;10905;50.822;4.336;2023-01-19T04:10:39;2.90;99.90
21487;DHT22;10905;50.822;4.336;2023-01-19T04:13:05;2.80;99.90
21487;DHT22;10905;50.822;4.336;2023-01-19T04:15:31;2.60;99.90
21487;DHT22;10905;50.822;4.336;2023-01-19T04:17:58;2.60;99.90
21487;DHT22;10905;50.822;4.336;2023-01-19T04:20:24;2.60;99.90
21487;DHT22;10905;50.822;4.336;2023-01-19T04:22:51;2.60;99.90
21487;DHT22;10905;50.822;4.336;2023-01-19T04:25:17;2.60;99.90
21487;DHT22;10905;50.822;4.336;2023-01-19T04:27:42;2.50;99.90
21487;DHT22;10905;50.822;4.336;2023-01-19T04:30:08;2.50;99.90
21487;DHT22;10905;50.822;4.336;2023-01-19T04:32:35;2.50;99.90
21487;DHT22;10905;50.822;4.336;2023-01-19T04:35:01;2.60;99.90
21487;DHT22;10905;50.822;4.336;2023-01-19T04:37:27;2.60;99.90
21487;DHT22;10905;50.822;4.336;2023-01-19T04:39:52;2.60;99.90
21487;DHT22;10905;50.822;4.336;2023-01-19T04:42:18;2.60;99.90
21487;DHT22;10905;50.822;4.336;2023-01-19T04:44:44;2.60;99.90
21487;DHT22;10905;50.822;4.336;2023-01-19T04:47:10;2.60;99.90
21487;DHT22;10905;50.822;4.336;2023-01-19T04:49:36;2.70;99.90
21487;DHT22;10905;50.822;4.336;2023-01-19T04:52:04;2.70;99.90
21487;DHT22;10905;50.822;4.336;2023-01-19T04:54:30;2.60;99.90
21487;DHT22;10905;50.822;4.336;2023-01-19T04:56:56;2.70;99.90
21487;DHT22;10905;50.822;4.336;2023-01-19T04:59:22;2.70;99.90
21487;DHT22;10905;50.822;4.336;2023-01-19T05:01:48;2.70;99.90
21487;DHT22;10905;50.822;4.336;2023-01-19T05:04:13;2.70;99.90
21487;DHT22;10905;50.822;4.336;2023-01-19T05:06:39;2.60;99.90
21487;DHT22;10905;50.822;4.336;2023-01-19T05:09:05;2.70;99.90
21487;DHT22;10905;50.822;4.336;2023-01-19T05:11:36;2.70;99.90
21487;DHT22;10905;50.822;4.336;2023-01-19T05:14:01;2.70;99.90
21487;DHT22;10905;50.822;4.336;2023-01-19T05:16:27;2.70;99.90
21487;DHT22;10905;50.822;4.336;2023-01-19T05:18:52;2.80;99.90
21487;DHT22;10905;50.822;4.336;2023-01-19T05:21:18;2.70;99.90
21487;DHT22;10905;50.822;4.336;2023-01-19T05:23:44;2.90;99.90
21487;DHT22;10905;50.822;4.336;2023-01-19T05:26:10;2.70;99.90
21487;DHT22;10905;50.822;4.336;2023-01-19T05:28:36;2.80;99.90
21487;DHT22;10905;50.822;4.336;2023-01-19T05:31:02;2.80;99.90
21487;DHT22;10905;50.822;4.336;2023-01-19T05:33:28;2.90;99.90
21487;DHT22;10905;50.822;4.336;2023-01-19T05:35:54;2.90;99.90
21487;DHT22;10905;50.822;4.336;2023-01-19T05:38:20;3.00;99.90
21487;DHT22;10905;50.822;4.336;2023-01-19T05:40:46;2.90;99.90
21487;DHT22;10905;50.822;4.336;2023-01-19T05:43:13;2.90;99.90
21487;DHT22;10905;50.822;4.336;2023-01-19T05:45:39;2.80;99.90
21487;DHT22;10905;50.822;4.336;2023-01-19T05:48:06;2.80;99.90
21487;DHT22;10905;50.822;4.336;2023-01-19T05:50:33;2.80;99.90
21487;DHT22;10905;50.822;4.336;2023-01-19T05:52:59;2.80;99.90
21487;DHT22;10905;50.822;4.336;2023-01-19T05:55:26;2.80;99.90
21487;DHT22;10905;50.822;4.336;2023-01-19T05:57:52;2.80;99.90
21487;DHT22;10905;50.822;4.336;2023-01-19T06:00:17;2.70;99.90
21487;DHT22;10905;50.822;4.336;2023-01-19T06:02:43;2.60;99.90
21487;DHT22;10905;50.822;4.336;2023-01-19T06:05:14;2.50;99.90
21487;DHT22;10905;50.822;4.336;2023-01-19T06:07:40;2.50;99.90
21487;DHT22;10905;50.822;4.336;2023-01-19T06:10:06;2.60;99.90
21487;DHT22;10905;50.822;4.336;2023-01-19T06:12:31;2.60;99.90
21487;DHT22;10905;50.822;4.336;2023-01-19T06:14:57;2.80;99.90
21487;DHT22;10905;50.822;4.336;2023-01-19T06:17:23;2.70;99.90
21487;DHT22;10905;50.822;4.336;2023-01-19T06:19:48;2.70;99.90
21487;DHT22;10905;50.822;4.336;2023-01-19T06:22:14;2.80;99.90
21487;DHT22;10905;50.822;4.336;2023-01-19T06:24:40;2.90;99.90
21487;DHT22;10905;50.822;4.336;2023-01-19T06:27:05;2.90;99.90
21487;DHT22;10905;50.822;4.336;2023-01-19T06:29:31;2.90;99.90
21487;DHT22;10905;50.822;4.336;2023-01-19T06:31:56;2.90;99.90
21487;DHT22;10905;50.822;4.336;2023-01-19T06:34:22;2.90;99.90
21487;DHT22;10905;50.822;4.336;2023-01-19T06:36:54;2.80;99.90
21487;DHT22;10905;50.822;4.336;2023-01-19T06:39:19;2.80;99.90
21487;DHT22;10905;50.822;4.336;2023-01-19T06:41:45;2.80;99.90
21487;DHT22;10905;50.822;4.336;2023-01-19T06:44:10;2.80;99.90
21487;DHT22;10905;50.822;4.336;2023-01-19T06:46:36;2.80;99.90
21487;DHT22;10905;50.822;4.336;2023-01-19T06:49:01;2.90;99.90
21487;DHT22;10905;50.822;4.336;2023-01-19T06:51:27;3.00;99.90
21487;DHT22;10905;50.822;4.336;2023-01-19T06:53:53;3.00;99.90
21487;DHT22;10905;50.822;4.336;2023-01-19T06:56:18;3.00;99.90
21487;DHT22;10905;50.822;4.336;2023-01-19T06:58:46;3.10;99.90
21487;DHT22;10905;50.822;4.336;2023-01-19T07:01:12;3.00;99.90
21487;DHT22;10905;50.822;4.336;2023-01-19T07:03:38;3.00;99.90
21487;DHT22;10905;50.822;4.336;2023-01-19T07:06:04;3.00;99.90
21487;DHT22;10905;50.822;4.336;2023-01-19T07:08:32;3.00;99.90
21487;DHT22;10905;50.822;4.336;2023-01-19T07:10:59;3.00;99.90
21487;DHT22;10905;50.822;4.336;2023-01-19T07:13:25;3.10;99.90
21487;DHT22;10905;50.822;4.336;2023-01-19T07:15:51;3.00;99.90
21487;DHT22;10905;50.822;4.336;2023-01-19T07:18:17;3.00;99.90
21487;DHT22;10905;50.822;4.336;2023-01-19T07:20:42;3.00;99.90
21487;DHT22;10905;50.822;4.336;2023-01-19T07:23:10;2.90;99.90
21487;DHT22;10905;50.822;4.336;2023-01-19T07:25:35;3.10;99.90
21487;DHT22;10905;50.822;4.336;2023-01-19T07:28:02;3.00;99.90
21487;DHT22;10905;50.822;4.336;2023-01-19T07:30:28;3.00;99.90
21487;DHT22;10905;50.822;4.336;2023-01-19T07:32:55;3.00;99.90
21487;DHT22;10905;50.822;4.336;2023-01-19T07:35:22;3.00;99.90
21487;DHT22;10905;50.822;4.336;2023-01-19T07:37:48;3.10;99.90
21487;DHT22;10905;50.822;4.336;2023-01-19T07:40:14;3.00;99.90
21487;DHT22;10905;50.822;4.336;2023-01-19T07:42:45;3.00;99.90
21487;DHT22;10905;50.822;4.336;2023-01-19T07:45:11;3.00;99.90
21487;DHT22;10905;50.822;4.336;2023-01-19T07:47:36;3.10;99.90
21487;DHT22;10905;50.822;4.336;2023-01-19T07:50:02;3.00;99.90
21487;DHT22;10905;50.822;4.336;2023-01-19T07:52:28;3.10;99.90
21487;DHT22;10905;50.822;4.336;2023-01-19T07:54:53;3.00;99.90
21487;DHT22;10905;50.822;4.336;2023-01-19T07:57:19;3.00;99.90
21487;DHT22;10905;50.822;4.336;2023-01-19T07:59:45;3.00;99.90
21487;DHT22;10905;50.822;4.336;2023-01-19T08:02:10;3.00;99.90
21487;DHT22;10905;50.822;4.336;2023-01-19T08:04:36;3.10;99.90
21487;DHT22;10905;50.822;4.336;2023-01-19T08:07:01;3.10;99.90
21487;DHT22;10905;50.822;4.336;2023-01-19T08:09:28;3.20;99.90
21487;DHT22;10905;50.822;4.336;2023-01-19T08:11:53;3.20;99.90
21487;DHT22;10905;50.822;4.336;2023-01-19T08:14:19;3.20;99.90
21487;DHT22;10905;50.822;4.336;2023-01-19T08:16:45;3.20;99.90
21487;DHT22;10905;50.822;4.336;2023-01-19T08:19:10;3.20;99.90
21487;DHT22;10905;50.822;4.336;2023-01-19T08:21:36;3.20;99.90
21487;DHT22;10905;50.822;4.336;2023-01-19T08:24:03;3.30;99.90
21487;DHT22;10905;50.822;4.336;2023-01-19T08:26:33;3.30;99.90
21487;DHT22;10905;50.822;4.336;2023-01-19T08:29:01;3.30;99.90
21487;DHT22;10905;50.822;4.336;2023-01-19T08:31:27;3.20;99.90
21487;DHT22;10905;50.822;4.336;2023-01-19T08:33:53;3.30;99.90
21487;DHT22;10905;50.822;4.336;2023-01-19T08:36:20;3.30;99.90
21487;DHT22;10905;50.822;4.336;2023-01-19T08:38:46;3.40;99.90
21487;DHT22;10905;50.822;4.336;2023-01-19T08:41:12;3.30;99.90
21487;DHT22;10905;50.822;4.336;2023-01-19T08:43:38;3.30;99.90
21487;DHT22;10905;50.822;4.336;2023-01-19T08:46:04;3.40;99.90
21487;DHT22;10905;50.822;4.336;2023-01-19T08:48:30;3.40;99.90
21487;DHT22;10905;50.822;4.336;2023-01-19T08:50:56;3.30;99.90
21487;DHT22;10905;50.822;4.336;2023-01-19T08:53:22;3.30;99.90
21487;DHT22;10905;50.822;4.336;2023-01-19T08:55:48;3.30;99.90
21487;DHT22;10905;50.822;4.336;2023-01-19T08:58:15;3.30;99.90
21487;DHT22;10905;50.822;4.336;2023-01-19T09:00:41;3.20;99.90
21487;DHT22;10905;50.822;4.336;2023-01-19T09:03:10;3.30;99.90
21487;DHT22;10905;50.822;4.336;2023-01-19T09:05:37;3.40;99.90
21487;DHT22;10905;50.822;4.336;2023-01-19T09:08:06;3.40;99.90
21487;DHT22;10905;50.822;4.336;2023-01-19T09:10:35;3.40;99.90
21487;DHT22;10905;50.822;4.336;2023-01-19T09:13:07;3.30;99.90
21487;DHT22;10905;50.822;4.336;2023-01-19T09:15:35;3.30;99.90
21487;DHT22;10905;50.822;4.336;2023-01-19T09:18:03;3.30;99.90
21487;DHT22;10905;50.822;4.336;2023-01-19T09:20:29;3.30;99.90
21487;DHT22;10905;50.822;4.336;2023-01-19T09:22:56;3.30;99.90
21487;DHT22;10905;50.822;4.336;2023-01-19T09:25:22;3.30;99.90
21487;DHT22;10905;50.822;4.336;2023-01-19T09:27:48;3.30;99.90
21487;DHT22;10905;50.822;4.336;2023-01-19T09:30:14;3.30;99.90
21487;DHT22;10905;50.822;4.336;2023-01-19T09:32:41;3.30;99.90
21487;DHT22;10905;50.822;4.336;2023-01-19T09:35:07;3.40;99.90
21487;DHT22;10905;50.822;4.336;2023-01-19T09:37:33;3.40;99.90
21487;DHT22;10905;50.822;4.336;2023-01-19T09:39:58;3.40;99.90
21487;DHT22;10905;50.822;4.336;2023-01-19T09:42:42;3.50;99.90
21487;DHT22;10905;50.822;4.336;2023-01-19T09:48:06;3.60;99.90
21487;DHT22;10905;50.822;4.336;2023-01-19T09:50:35;3.70;99.90
21487;DHT22;10905;50.822;4.336;2023-01-19T09:53:15;3.80;99.90
21487;DHT22;10905;50.822;4.336;2023-01-19T09:55:44;3.70;99.90
21487;DHT22;10905;50.822;4.336;2023-01-19T09:58:14;3.70;99.90
21487;DHT22;10905;50.822;4.336;2023-01-19T10:00:45;3.60;99.90
21487;DHT22;10905;50.822;4.336;2023-01-19T10:03:16;3.70;99.90
21487;DHT22;10905;50.822;4.336;2023-01-19T10:05:48;3.80;99.90
21487;DHT22;10905;50.822;4.336;2023-01-19T10:08:40;3.80;99.90
21487;DHT22;10905;50.822;4.336;2023-01-19T10:11:27;3.80;99.90
21487;DHT22;10905;50.822;4.336;2023-01-19T10:13:55;3.80;99.90
21487;DHT22;10905;50.822;4.336;2023-01-19T10:16:33;3.80;99.90
21487;DHT22;10905;50.822;4.336;2023-01-19T10:19:20;3.70;99.90
21487;DHT22;10905;50.822;4.336;2023-01-19T10:21:49;3.70;99.90
21487;DHT22;10905;50.822;4.336;2023-01-19T10:24:31;3.60;99.90
21487;DHT22;10905;50.822;4.336;2023-01-19T10:27:01;3.70;99.90
21487;DHT22;10905;50.822;4.336;2023-01-19T10:29:31;3.70;99.90
21487;DHT22;10905;50.822;4.336;2023-01-19T10:32:07;3.70;99.90
21487;DHT22;10905;50.822;4.336;2023-01-19T10:34:34;3.70;99.90
21487;DHT22;10905;50.822;4.336;2023-01-19T10:39:56;3.80;99.90
21487;DHT22;10905;50.822;4.336;2023-01-19T10:42:22;3.70;99.90
21487;DHT22;10905;50.822;4.336;2023-01-19T10:44:48;3.80;99.90
21487;DHT22;10905;50.822;4.336;2023-01-19T10:47:19;3.90;99.90
21487;DHT22;10905;50.822;4.336;2023-01-19T10:49:46;4.00;99.90
21487;DHT22;10905;50.822;4.336;2023-01-19T10:52:28;3.90;99.90
21487;DHT22;10905;50.822;4.336;2023-01-19T10:54:56;3.90;99.90
21487;DHT22;10905;50.822;4.336;2023-01-19T10:57:33;3.90;99.90
21487;DHT22;10905;50.822;4.336;2023-01-19T11:00:01;3.80;99.90
21487;DHT22;10905;50.822;4.336;2023-01-19T11:02:29;3.80;99.90
21487;DHT22;10905;50.822;4.336;2023-01-19T11:04:57;3.80;99.90
21487;DHT22;10905;50.822;4.336;2023-01-19T11:07:28;3.70;99.90
21487;DHT22;10905;50.822;4.336;2023-01-19T11:12:43;3.70;99.90
21487;DHT22;10905;50.822;4.336;2023-01-19T11:15:24;3.60;99.90
21487;DHT22;10905;50.822;4.336;2023-01-19T11:17:52;3.70;99.90
21487;DHT22;10905;50.822;4.336;2023-01-19T11:20:25;3.70;99.90
21487;DHT22;10905;50.822;4.336;2023-01-19T11:25:38;3.50;99.90
21487;DHT22;10905;50.822;4.336;2023-01-19T11:28:04;3.60;99.90
21487;DHT22;10905;50.822;4.336;2023-01-19T11:30:34;3.70;99.90
21487;DHT22;10905;50.822;4.336;2023-01-19T11:32:59;3.70;99.90
21487;DHT22;10905;50.822;4.336;2023-01-19T11:35:40;3.80;99.90
21487;DHT22;10905;50.822;4.336;2023-01-19T11:40:34;3.90;99.90
21487;DHT22;10905;50.822;4.336;2023-01-19T11:43:00;3.90;99.90
21487;DHT22;10905;50.822;4.336;2023-01-19T11:45:26;3.80;99.90
21487;DHT22;10905;50.822;4.336;2023-01-19T11:47:51;3.80;99.90
21487;DHT22;10905;50.822;4.336;2023-01-19T11:50:32;3.80;99.90
21487;DHT22;10905;50.822;4.336;2023-01-19T11:57:58;3.90;99.90
21487;DHT22;10905;50.822;4.336;2023-01-19T12:00:24;3.90;99.90
21487;DHT22;10905;50.822;4.336;2023-01-19T12:03:26;3.90;99.90
21487;DHT22;10905;50.822;4.336;2023-01-19T12:06:28;4.00;99.90
21487;DHT22;10905;50.822;4.336;2023-01-19T12:09:00;4.10;99.90
21487;DHT22;10905;50.822;4.336;2023-01-19T12:11:32;4.30;99.90
21487;DHT22;10905;50.822;4.336;2023-01-19T12:13:59;4.30;99.90
21487;DHT22;10905;50.822;4.336;2023-01-19T12:16:29;4.30;99.90
21487;DHT22;10905;50.822;4.336;2023-01-19T12:19:15;4.40;99.90
21487;DHT22;10905;50.822;4.336;2023-01-19T12:21:43;4.40;99.90
21487;DHT22;10905;50.822;4.336;2023-01-19T12:24:17;4.40;99.90
21487;DHT22;10905;50.822;4.336;2023-01-19T12:26:54;4.40;99.90
21487;DHT22;10905;50.822;4.336;2023-01-19T12:29:29;4.60;99.90
21487;DHT22;10905;50.822;4.336;2023-01-19T12:34:41;4.80;99.90
21487;DHT22;10905;50.822;4.336;2023-01-19T12:39:57;4.80;99.90
21487;DHT22;10905;50.822;4.336;2023-01-19T12:42:25;4.70;99.90
21487;DHT22;10905;50.822;4.336;2023-01-19T12:45:07;4.70;99.90
21487;DHT22;10905;50.822;4.336;2023-01-19T12:47:38;4.70;99.90
21487;DHT22;10905;50.822;4.336;2023-01-19T12:50:12;4.80;99.90
21487;DHT22;10905;50.822;4.336;2023-01-19T12:52:49;4.80;99.90
21487;DHT22;10905;50.822;4.336;2023-01-19T12:55:58;4.80;99.90
21487;DHT22;10905;50.822;4.336;2023-01-19T12:58:21;5.00;99.90
21487;DHT22;10905;50.822;4.336;2023-01-19T13:00:49;5.00;99.90
21487;DHT22;10905;50.822;4.336;2023-01-19T13:13:28;5.00;99.90
21487;DHT22;10905;50.822;4.336;2023-01-19T13:15:55;5.00;99.90
21487;DHT22;10905;50.822;4.336;2023-01-19T13:18:32;5.10;99.90
21487;DHT22;10905;50.822;4.336;2023-01-19T13:21:07;5.30;99.90
21487;DHT22;10905;50.822;4.336;2023-01-19T13:26:22;5.50;99.90
21487;DHT22;10905;50.822;4.336;2023-01-19T13:28:57;5.30;99.90
21487;DHT22;10905;50.822;4.336;2023-01-19T13:31:33;5.20;99.90
21487;DHT22;10905;50.822;4.336;2023-01-19T13:34:00;5.20;99.90
21487;DHT22;10905;50.822;4.336;2023-01-19T13:36:32;5.10;99.90
21487;DHT22;10905;50.822;4.336;2023-01-19T13:39:02;5.30;99.90
21487;DHT22;10905;50.822;4.336;2023-01-19T13:41:31;5.30;99.90
21487;DHT22;10905;50.822;4.336;2023-01-19T13:44:02;5.30;99.90
21487;DHT22;10905;50.822;4.336;2023-01-19T13:46:30;5.30;99.90
21487;DHT22;10905;50.822;4.336;2023-01-19T13:48:59;5.40;99.90
21487;DHT22;10905;50.822;4.336;2023-01-19T13:51:25;5.40;99.90
21487;DHT22;10905;50.822;4.336;2023-01-19T13:53:59;5.40;99.90
21487;DHT22;10905;50.822;4.336;2023-01-19T13:56:28;5.50;99.90
21487;DHT22;10905;50.822;4.336;2023-01-19T14:01:26;5.60;99.90
21487;DHT22;10905;50.822;4.336;2023-01-19T14:03:52;5.40;99.90
21487;DHT22;10905;50.822;4.336;2023-01-19T14:06:51;5.40;99.90
21487;DHT22;10905;50.822;4.336;2023-01-19T14:09:20;5.40;99.90
21487;DHT22;10905;50.822;4.336;2023-01-19T14:12:14;5.50;99.90
21487;DHT22;10905;50.822;4.336;2023-01-19T14:14:43;5.50;99.90
21487;DHT22;10905;50.822;4.336;2023-01-19T14:17:24;5.60;99.90
21487;DHT22;10905;50.822;4.336;2023-01-19T14:19:52;5.40;99.90
21487;DHT22;10905;50.822;4.336;2023-01-19T14:22:18;5.30;99.90
21487;DHT22;10905;50.822;4.336;2023-01-19T14:24:43;5.30;99.90
21487;DHT22;10905;50.822;4.336;2023-01-19T14:27:22;5.40;99.90
21487;DHT22;10905;50.822;4.336;2023-01-19T14:29:49;5.30;99.90
21487;DHT22;10905;50.822;4.336;2023-01-19T14:32:18;5.30;99.90
21487;DHT22;10905;50.822;4.336;2023-01-19T14:34:48;5.40;99.90
21487;DHT22;10905;50.822;4.336;2023-01-19T14:37:23;5.30;99.90
21487;DHT22;10905;50.822;4.336;2023-01-19T14:39:55;5.30;99.90
21487;DHT22;10905;50.822;4.336;2023-01-19T14:42:31;5.20;99.90
21487;DHT22;10905;50.822;4.336;2023-01-19T14:44:59;5.20;99.90
21487;DHT22;10905;50.822;4.336;2023-01-19T14:47:32;5.50;99.90
21487;DHT22;10905;50.822;4.336;2023-01-19T14:50:04;5.40;99.90
21487;DHT22;10905;50.822;4.336;2023-01-19T14:52:40;5.40;99.90
21487;DHT22;10905;50.822;4.336;2023-01-19T14:55:18;5.30;99.90
21487;DHT22;10905;50.822;4.336;2023-01-19T14:57:45;5.30;99.90
21487;DHT22;10905;50.822;4.336;2023-01-19T15:00:16;5.10;99.90
21487;DHT22;10905;50.822;4.336;2023-01-19T15:02:44;5.10;99.90
21487;DHT22;10905;50.822;4.336;2023-01-19T15:05:09;5.20;99.90
21487;DHT22;10905;50.822;4.336;2023-01-19T15:07:37;5.20;99.90
21487;DHT22;10905;50.822;4.336;2023-01-19T15:10:04;5.20;99.90
21487;DHT22;10905;50.822;4.336;2023-01-19T15:12:30;5.20;99.90
21487;DHT22;10905;50.822;4.336;2023-01-19T15:14:55;5.20;99.90
21487;DHT22;10905;50.822;4.336;2023-01-19T15:17:21;5.20;99.90
21487;DHT22;10905;50.822;4.336;2023-01-19T15:19:53;5.20;99.90
21487;DHT22;10905;50.822;4.336;2023-01-19T15:22:20;5.10;99.90
21487;DHT22;10905;50.822;4.336;2023-01-19T15:24:50;5.10;99.90
21487;DHT22;10905;50.822;4.336;2023-01-19T15:27:21;5.20;99.90
21487;DHT22;10905;50.822;4.336;2023-01-19T15:29:47;5.10;99.90
21487;DHT22;10905;50.822;4.336;2023-01-19T15:32:14;5.20;99.90
21487;DHT22;10905;50.822;4.336;2023-01-19T15:34:40;5.00;99.90
21487;DHT22;10905;50.822;4.336;2023-01-19T15:37:06;5.00;99.90
21487;DHT22;10905;50.822;4.336;2023-01-19T15:39:31;5.00;99.90
21487;DHT22;10905;50.822;4.336;2023-01-19T15:41:57;5.00;99.90
21487;DHT22;10905;50.822;4.336;2023-01-19T15:44:23;5.10;99.90
21487;DHT22;10905;50.822;4.336;2023-01-19T15:46:48;4.90;99.90
21487;DHT22;10905;50.822;4.336;2023-01-19T15:49:14;5.00;99.90
21487;DHT22;10905;50.822;4.336;2023-01-19T15:51:39;4.80;99.90
21487;DHT22;10905;50.822;4.336;2023-01-19T15:54:12;4.70;99.90
21487;DHT22;10905;50.822;4.336;2023-01-19T15:56:40;4.70;99.90
21487;DHT22;10905;50.822;4.336;2023-01-19T15:59:07;4.70;99.90
21487;DHT22;10905;50.822;4.336;2023-01-19T16:01:33;4.60;99.90
21487;DHT22;10905;50.822;4.336;2023-01-19T16:04:01;4.50;99.90
21487;DHT22;10905;50.822;4.336;2023-01-19T16:06:27;4.50;99.90
21487;DHT22;10905;50.822;4.336;2023-01-19T16:08:54;4.30;99.90
21487;DHT22;10905;50.822;4.336;2023-01-19T16:11:24;4.30;99.90
21487;DHT22;10905;50.822;4.336;2023-01-19T16:13:50;4.20;99.90
21487;DHT22;10905;50.822;4.336;2023-01-19T16:16:18;4.10;99.90
21487;DHT22;10905;50.822;4.336;2023-01-19T16:18:44;4.10;99.90
21487;DHT22;10905;50.822;4.336;2023-01-19T16:21:10;4.00;99.90
21487;DHT22;10905;50.822;4.336;2023-01-19T16:23:35;4.00;99.90
21487;DHT22;10905;50.822;4.336;2023-01-19T16:26:03;3.90;99.90
21487;DHT22;10905;50.822;4.336;2023-01-19T16:28:33;3.90;99.90
21487;DHT22;10905;50.822;4.336;2023-01-19T16:30:58;3.90;99.90
21487;DHT22;10905;50.822;4.336;2023-01-19T16:33:24;3.90;99.90
21487;DHT22;10905;50.822;4.336;2023-01-19T16:35:50;3.80;99.90
21487;DHT22;10905;50.822;4.336;2023-01-19T16:38:16;3.80;99.90
21487;DHT22;10905;50.822;4.336;2023-01-19T16:40:45;3.80;99.90
21487;DHT22;10905;50.822;4.336;2023-01-19T16:43:12;3.70;99.90
21487;DHT22;10905;50.822;4.336;2023-01-19T16:46:00;3.80;99.90
21487;DHT22;10905;50.822;4.336;2023-01-19T16:48:26;3.80;99.90
21487;DHT22;10905;50.822;4.336;2023-01-19T16:51:02;3.80;99.90
21487;DHT22;10905;50.822;4.336;2023-01-19T16:53:28;3.80;99.90
21487;DHT22;10905;50.822;4.336;2023-01-19T16:55:54;3.70;99.90
21487;DHT22;10905;50.822;4.336;2023-01-19T16:58:20;3.80;99.90
21487;DHT22;10905;50.822;4.336;2023-01-19T17:00:45;3.80;99.90
21487;DHT22;10905;50.822;4.336;2023-01-19T17:03:11;3.80;99.90
21487;DHT22;10905;50.822;4.336;2023-01-19T17:05:37;3.70;99.90